sensor_id;sensor_type;location;lat;lon;timestamp;P1;durP1;ratioP1;P2;durP2;ratioP2
55312;SDS011;46892;45.668;11.756;2022-07-06T00:01:19;2.33;;;1.67;;
55312;SDS011;46892;45.668;11.756;2022-07-06T00:03:45;3.07;;;1.57;;
55312;SDS011;46892;45.668;11.756;2022-07-06T00:06:11;3.17;;;1.63;;
55312;SDS011;46892;45.668;11.756;2022-07-06T00:08:37;3.60;;;1.80;;
55312;SDS011;46892;45.668;11.756;2022-07-06T00:11:02;3.00;;;1.80;;
55312;SDS011;46892;45.668;11.756;2022-07-06T00:13:28;2.43;;;1.73;;
55312;SDS011;46892;45.668;11.756;2022-07-06T00:15:54;3.83;;;1.83;;
55312;SDS011;46892;45.668;11.756;2022-07-06T00:18:20;3.53;;;1.50;;
55312;SDS011;46892;45.668;11.756;2022-07-06T00:20:46;3.00;;;1.70;;
55312;SDS011;46892;45.668;11.756;2022-07-06T00:23:11;4.53;;;1.97;;
55312;SDS011;46892;45.668;11.756;2022-07-06T00:25:37;5.00;;;2.13;;
55312;SDS011;46892;45.668;11.756;2022-07-06T00:28:03;3.40;;;2.17;;
55312;SDS011;46892;45.668;11.756;2022-07-06T00:30:29;4.43;;;1.77;;
55312;SDS011;46892;45.668;11.756;2022-07-06T00:32:55;5.83;;;1.77;;
55312;SDS011;46892;45.668;11.756;2022-07-06T00:35:23;3.40;;;1.47;;
55312;SDS011;46892;45.668;11.756;2022-07-06T00:37:49;2.40;;;1.50;;
55312;SDS011;46892;45.668;11.756;2022-07-06T00:40:15;3.33;;;1.50;;
55312;SDS011;46892;45.668;11.756;2022-07-06T00:42:42;3.90;;;1.90;;
55312;SDS011;46892;45.668;11.756;2022-07-06T00:45:09;2.60;;;1.63;;
55312;SDS011;46892;45.668;11.756;2022-07-06T00:47:36;1.93;;;1.50;;
55312;SDS011;46892;45.668;11.756;2022-07-06T00:50:03;2.80;;;1.77;;
55312;SDS011;46892;45.668;11.756;2022-07-06T00:52:49;4.03;;;1.80;;
55312;SDS011;46892;45.668;11.756;2022-07-06T00:55:21;2.60;;;1.53;;
55312;SDS011;46892;45.668;11.756;2022-07-06T00:57:48;3.93;;;1.80;;
55312;SDS011;46892;45.668;11.756;2022-07-06T01:00:16;4.53;;;1.90;;
55312;SDS011;46892;45.668;11.756;2022-07-06T01:02:44;4.00;;;1.73;;
55312;SDS011;46892;45.668;11.756;2022-07-06T01:05:11;1.47;;;1.30;;
55312;SDS011;46892;45.668;11.756;2022-07-06T01:07:39;2.63;;;1.67;;
55312;SDS011;46892;45.668;11.756;2022-07-06T01:10:06;3.13;;;1.80;;
55312;SDS011;46892;45.668;11.756;2022-07-06T01:12:36;3.33;;;1.47;;
55312;SDS011;46892;45.668;11.756;2022-07-06T01:15:03;2.43;;;1.60;;
55312;SDS011;46892;45.668;11.756;2022-07-06T01:17:30;2.03;;;1.70;;
55312;SDS011;46892;45.668;11.756;2022-07-06T01:19:57;4.67;;;1.90;;
55312;SDS011;46892;45.668;11.756;2022-07-06T01:22:22;3.77;;;1.80;;
55312;SDS011;46892;45.668;11.756;2022-07-06T01:24:48;3.23;;;1.80;;
55312;SDS011;46892;45.668;11.756;2022-07-06T01:27:14;2.60;;;1.60;;
55312;SDS011;46892;45.668;11.756;2022-07-06T01:29:39;2.13;;;1.53;;
55312;SDS011;46892;45.668;11.756;2022-07-06T01:32:05;2.37;;;1.70;;
55312;SDS011;46892;45.668;11.756;2022-07-06T01:34:31;6.97;;;2.20;;
55312;SDS011;46892;45.668;11.756;2022-07-06T01:36:57;6.50;;;2.23;;
55312;SDS011;46892;45.668;11.756;2022-07-06T01:39:22;3.83;;;2.30;;
55312;SDS011;46892;45.668;11.756;2022-07-06T01:41:48;4.93;;;3.10;;
55312;SDS011;46892;45.668;11.756;2022-07-06T01:44:14;6.80;;;3.67;;
55312;SDS011;46892;45.668;11.756;2022-07-06T01:46:40;5.90;;;3.03;;
55312;SDS011;46892;45.668;11.756;2022-07-06T01:49:05;4.43;;;2.73;;
55312;SDS011;46892;45.668;11.756;2022-07-06T01:51:32;4.47;;;2.53;;
55312;SDS011;46892;45.668;11.756;2022-07-06T01:53:58;3.67;;;2.43;;
55312;SDS011;46892;45.668;11.756;2022-07-06T01:56:23;3.23;;;2.10;;
55312;SDS011;46892;45.668;11.756;2022-07-06T01:58:49;3.77;;;2.67;;
55312;SDS011;46892;45.668;11.756;2022-07-06T02:01:16;5.33;;;2.47;;
55312;SDS011;46892;45.668;11.756;2022-07-06T02:03:43;4.53;;;2.50;;
55312;SDS011;46892;45.668;11.756;2022-07-06T02:06:09;5.43;;;2.60;;
55312;SDS011;46892;45.668;11.756;2022-07-06T02:08:37;2.93;;;2.10;;
55312;SDS011;46892;45.668;11.756;2022-07-06T02:11:03;3.90;;;2.00;;
55312;SDS011;46892;45.668;11.756;2022-07-06T02:13:33;11.55;;;3.08;;
55312;SDS011;46892;45.668;11.756;2022-07-06T02:15:59;3.60;;;2.73;;
55312;SDS011;46892;45.668;11.756;2022-07-06T02:18:25;4.00;;;2.20;;
55312;SDS011;46892;45.668;11.756;2022-07-06T02:20:51;3.57;;;1.83;;
55312;SDS011;46892;45.668;11.756;2022-07-06T02:23:17;1.97;;;1.77;;
55312;SDS011;46892;45.668;11.756;2022-07-06T02:25:43;6.17;;;2.20;;
55312;SDS011;46892;45.668;11.756;2022-07-06T02:28:08;7.43;;;2.50;;
55312;SDS011;46892;45.668;11.756;2022-07-06T02:30:34;6.07;;;2.60;;
55312;SDS011;46892;45.668;11.756;2022-07-06T02:33:00;3.93;;;2.50;;
55312;SDS011;46892;45.668;11.756;2022-07-06T02:35:25;5.07;;;2.27;;
55312;SDS011;46892;45.668;11.756;2022-07-06T02:37:51;4.57;;;2.40;;
55312;SDS011;46892;45.668;11.756;2022-07-06T02:40:17;3.07;;;2.33;;
55312;SDS011;46892;45.668;11.756;2022-07-06T02:42:43;4.83;;;2.50;;
55312;SDS011;46892;45.668;11.756;2022-07-06T02:45:09;4.00;;;2.27;;
55312;SDS011;46892;45.668;11.756;2022-07-06T02:47:35;3.37;;;2.37;;
55312;SDS011;46892;45.668;11.756;2022-07-06T02:50:01;4.67;;;2.43;;
55312;SDS011;46892;45.668;11.756;2022-07-06T02:52:26;4.67;;;2.17;;
55312;SDS011;46892;45.668;11.756;2022-07-06T02:54:52;3.20;;;2.20;;
55312;SDS011;46892;45.668;11.756;2022-07-06T02:57:18;3.80;;;2.50;;
55312;SDS011;46892;45.668;11.756;2022-07-06T02:59:44;4.57;;;2.53;;
55312;SDS011;46892;45.668;11.756;2022-07-06T03:02:11;2.90;;;2.40;;
55312;SDS011;46892;45.668;11.756;2022-07-06T03:04:36;4.20;;;2.80;;
55312;SDS011;46892;45.668;11.756;2022-07-06T03:07:02;5.27;;;2.70;;
55312;SDS011;46892;45.668;11.756;2022-07-06T03:09:28;4.30;;;2.70;;
55312;SDS011;46892;45.668;11.756;2022-07-06T03:11:54;5.40;;;2.93;;
55312;SDS011;46892;45.668;11.756;2022-07-06T03:14:20;5.70;;;2.80;;
55312;SDS011;46892;45.668;11.756;2022-07-06T03:16:45;5.20;;;2.97;;
55312;SDS011;46892;45.668;11.756;2022-07-06T03:19:11;5.87;;;3.00;;
55312;SDS011;46892;45.668;11.756;2022-07-06T03:21:37;5.57;;;3.13;;
55312;SDS011;46892;45.668;11.756;2022-07-06T03:24:03;4.20;;;2.90;;
55312;SDS011;46892;45.668;11.756;2022-07-06T03:26:29;8.87;;;3.20;;
55312;SDS011;46892;45.668;11.756;2022-07-06T03:28:54;5.53;;;3.17;;
55312;SDS011;46892;45.668;11.756;2022-07-06T03:31:20;5.43;;;3.40;;
55312;SDS011;46892;45.668;11.756;2022-07-06T03:33:46;5.43;;;3.37;;
55312;SDS011;46892;45.668;11.756;2022-07-06T03:36:11;4.30;;;3.73;;
55312;SDS011;46892;45.668;11.756;2022-07-06T03:38:38;5.23;;;3.80;;
55312;SDS011;46892;45.668;11.756;2022-07-06T03:41:03;6.53;;;4.00;;
55312;SDS011;46892;45.668;11.756;2022-07-06T03:43:29;4.93;;;3.67;;
55312;SDS011;46892;45.668;11.756;2022-07-06T03:45:55;4.10;;;3.57;;
55312;SDS011;46892;45.668;11.756;2022-07-06T03:48:21;8.30;;;4.23;;
55312;SDS011;46892;45.668;11.756;2022-07-06T03:50:46;7.20;;;4.30;;
55312;SDS011;46892;45.668;11.756;2022-07-06T03:53:12;5.70;;;4.10;;
55312;SDS011;46892;45.668;11.756;2022-07-06T03:55:38;7.17;;;3.87;;
55312;SDS011;46892;45.668;11.756;2022-07-06T03:58:03;4.90;;;4.00;;
55312;SDS011;46892;45.668;11.756;2022-07-06T04:00:29;4.37;;;3.37;;
55312;SDS011;46892;45.668;11.756;2022-07-06T04:02:54;4.13;;;3.40;;
55312;SDS011;46892;45.668;11.756;2022-07-06T04:05:20;5.20;;;3.40;;
55312;SDS011;46892;45.668;11.756;2022-07-06T04:07:47;5.03;;;3.70;;
55312;SDS011;46892;45.668;11.756;2022-07-06T04:10:13;4.40;;;3.60;;
55312;SDS011;46892;45.668;11.756;2022-07-06T04:12:43;4.30;;;3.43;;
55312;SDS011;46892;45.668;11.756;2022-07-06T04:15:09;8.70;;;3.28;;
55312;SDS011;46892;45.668;11.756;2022-07-06T04:17:36;4.37;;;3.10;;
55312;SDS011;46892;45.668;11.756;2022-07-06T04:20:16;6.90;;;3.03;;
55312;SDS011;46892;45.668;11.756;2022-07-06T04:22:42;6.97;;;2.80;;
55312;SDS011;46892;45.668;11.756;2022-07-06T04:25:08;6.27;;;3.03;;
55312;SDS011;46892;45.668;11.756;2022-07-06T04:27:34;4.03;;;2.40;;
55312;SDS011;46892;45.668;11.756;2022-07-06T04:30:00;4.43;;;2.57;;
55312;SDS011;46892;45.668;11.756;2022-07-06T04:32:26;4.17;;;2.20;;
55312;SDS011;46892;45.668;11.756;2022-07-06T04:34:52;4.33;;;2.10;;
55312;SDS011;46892;45.668;11.756;2022-07-06T04:37:17;6.03;;;2.10;;
55312;SDS011;46892;45.668;11.756;2022-07-06T04:39:43;6.03;;;2.13;;
55312;SDS011;46892;45.668;11.756;2022-07-06T04:42:09;7.03;;;2.43;;
55312;SDS011;46892;45.668;11.756;2022-07-06T04:44:34;7.13;;;2.73;;
55312;SDS011;46892;45.668;11.756;2022-07-06T04:47:00;8.73;;;1.87;;
55312;SDS011;46892;45.668;11.756;2022-07-06T04:49:25;6.87;;;2.10;;
55312;SDS011;46892;45.668;11.756;2022-07-06T04:51:51;7.93;;;2.53;;
55312;SDS011;46892;45.668;11.756;2022-07-06T04:54:17;4.33;;;1.90;;
55312;SDS011;46892;45.668;11.756;2022-07-06T04:56:42;4.43;;;1.90;;
55312;SDS011;46892;45.668;11.756;2022-07-06T04:59:08;3.03;;;1.90;;
55312;SDS011;46892;45.668;11.756;2022-07-06T05:01:34;3.10;;;1.87;;
55312;SDS011;46892;45.668;11.756;2022-07-06T05:03:59;2.93;;;1.77;;
55312;SDS011;46892;45.668;11.756;2022-07-06T05:06:25;2.63;;;1.97;;
55312;SDS011;46892;45.668;11.756;2022-07-06T05:08:51;7.67;;;2.23;;
55312;SDS011;46892;45.668;11.756;2022-07-06T05:11:16;4.10;;;1.63;;
55312;SDS011;46892;45.668;11.756;2022-07-06T05:13:42;6.07;;;1.80;;
55312;SDS011;46892;45.668;11.756;2022-07-06T05:16:08;3.43;;;1.80;;
55312;SDS011;46892;45.668;11.756;2022-07-06T05:18:34;5.27;;;1.70;;
55312;SDS011;46892;45.668;11.756;2022-07-06T05:20:59;1.90;;;1.50;;
55312;SDS011;46892;45.668;11.756;2022-07-06T05:23:25;3.77;;;1.60;;
55312;SDS011;46892;45.668;11.756;2022-07-06T05:25:51;2.67;;;1.47;;
55312;SDS011;46892;45.668;11.756;2022-07-06T05:28:17;1.50;;;1.37;;
55312;SDS011;46892;45.668;11.756;2022-07-06T05:30:43;5.83;;;1.80;;
55312;SDS011;46892;45.668;11.756;2022-07-06T05:33:08;4.10;;;1.60;;
55312;SDS011;46892;45.668;11.756;2022-07-06T05:35:34;3.13;;;1.43;;
55312;SDS011;46892;45.668;11.756;2022-07-06T05:38:00;3.00;;;1.60;;
55312;SDS011;46892;45.668;11.756;2022-07-06T05:40:25;3.13;;;1.37;;
55312;SDS011;46892;45.668;11.756;2022-07-06T05:42:51;3.13;;;1.40;;
55312;SDS011;46892;45.668;11.756;2022-07-06T05:45:17;2.17;;;1.60;;
55312;SDS011;46892;45.668;11.756;2022-07-06T05:47:42;3.07;;;1.50;;
55312;SDS011;46892;45.668;11.756;2022-07-06T05:50:26;3.43;;;1.40;;
55312;SDS011;46892;45.668;11.756;2022-07-06T05:53:03;3.53;;;1.47;;
55312;SDS011;46892;45.668;11.756;2022-07-06T05:55:30;1.90;;;1.30;;
55312;SDS011;46892;45.668;11.756;2022-07-06T05:57:56;3.20;;;1.30;;
55312;SDS011;46892;45.668;11.756;2022-07-06T06:00:22;4.03;;;1.27;;
55312;SDS011;46892;45.668;11.756;2022-07-06T06:02:49;3.47;;;1.30;;
55312;SDS011;46892;45.668;11.756;2022-07-06T06:05:15;2.07;;;1.40;;
55312;SDS011;46892;45.668;11.756;2022-07-06T06:07:42;3.60;;;1.23;;
55312;SDS011;46892;45.668;11.756;2022-07-06T06:10:11;2.47;;;1.27;;
55312;SDS011;46892;45.668;11.756;2022-07-06T06:12:38;4.65;;;1.20;;
55312;SDS011;46892;45.668;11.756;2022-07-06T06:15:05;1.60;;;1.10;;
55312;SDS011;46892;45.668;11.756;2022-07-06T06:17:32;1.53;;;1.10;;
55312;SDS011;46892;45.668;11.756;2022-07-06T06:19:58;2.37;;;1.40;;
55312;SDS011;46892;45.668;11.756;2022-07-06T06:22:24;1.90;;;1.30;;
55312;SDS011;46892;45.668;11.756;2022-07-06T06:24:49;3.60;;;1.50;;
55312;SDS011;46892;45.668;11.756;2022-07-06T06:27:15;2.97;;;1.27;;
55312;SDS011;46892;45.668;11.756;2022-07-06T06:29:41;1.92;;;1.40;;
55312;SDS011;46892;45.668;11.756;2022-07-06T06:32:09;1.73;;;1.20;;
55312;SDS011;46892;45.668;11.756;2022-07-06T06:34:35;3.28;;;1.30;;
55312;SDS011;46892;45.668;11.756;2022-07-06T06:37:01;2.90;;;1.30;;
55312;SDS011;46892;45.668;11.756;2022-07-06T06:39:27;3.40;;;1.25;;
55312;SDS011;46892;45.668;11.756;2022-07-06T06:41:52;3.67;;;1.40;;
55312;SDS011;46892;45.668;11.756;2022-07-06T06:44:18;2.67;;;1.30;;
55312;SDS011;46892;45.668;11.756;2022-07-06T06:46:44;2.50;;;1.33;;
55312;SDS011;46892;45.668;11.756;2022-07-06T06:49:10;2.08;;;1.17;;
55312;SDS011;46892;45.668;11.756;2022-07-06T06:51:35;4.40;;;1.15;;
55312;SDS011;46892;45.668;11.756;2022-07-06T06:54:03;2.28;;;1.20;;
55312;SDS011;46892;45.668;11.756;2022-07-06T06:56:29;2.72;;;1.48;;
55312;SDS011;46892;45.668;11.756;2022-07-06T06:58:55;1.73;;;1.40;;
55312;SDS011;46892;45.668;11.756;2022-07-06T07:01:20;1.80;;;1.40;;
55312;SDS011;46892;45.668;11.756;2022-07-06T07:03:46;1.63;;;1.10;;
55312;SDS011;46892;45.668;11.756;2022-07-06T07:06:12;2.95;;;1.40;;
55312;SDS011;46892;45.668;11.756;2022-07-06T07:08:37;3.63;;;1.40;;
55312;SDS011;46892;45.668;11.756;2022-07-06T07:11:03;1.92;;;1.20;;
55312;SDS011;46892;45.668;11.756;2022-07-06T07:13:29;1.60;;;1.00;;
55312;SDS011;46892;45.668;11.756;2022-07-06T07:15:55;6.15;;;1.40;;
55312;SDS011;46892;45.668;11.756;2022-07-06T07:18:20;4.20;;;1.30;;
55312;SDS011;46892;45.668;11.756;2022-07-06T07:20:46;2.00;;;1.20;;
55312;SDS011;46892;45.668;11.756;2022-07-06T07:23:11;2.85;;;1.20;;
55312;SDS011;46892;45.668;11.756;2022-07-06T07:25:37;4.38;;;1.30;;
55312;SDS011;46892;45.668;11.756;2022-07-06T07:28:05;2.75;;;1.10;;
55312;SDS011;46892;45.668;11.756;2022-07-06T07:30:31;1.75;;;0.85;;
55312;SDS011;46892;45.668;11.756;2022-07-06T07:32:57;1.70;;;0.90;;
55312;SDS011;46892;45.668;11.756;2022-07-06T07:35:25;1.33;;;1.13;;
55312;SDS011;46892;45.668;11.756;2022-07-06T07:37:50;1.23;;;0.88;;
55312;SDS011;46892;45.668;11.756;2022-07-06T07:40:16;1.65;;;1.00;;
55312;SDS011;46892;45.668;11.756;2022-07-06T07:42:43;1.15;;;0.82;;
55312;SDS011;46892;45.668;11.756;2022-07-06T07:45:10;2.53;;;1.13;;
55312;SDS011;46892;45.668;11.756;2022-07-06T07:47:37;5.80;;;1.50;;
55312;SDS011;46892;45.668;11.756;2022-07-06T07:50:03;3.00;;;1.30;;
55312;SDS011;46892;45.668;11.756;2022-07-06T07:52:29;4.38;;;1.35;;
55312;SDS011;46892;45.668;11.756;2022-07-06T07:54:55;1.67;;;1.10;;
55312;SDS011;46892;45.668;11.756;2022-07-06T07:57:20;1.75;;;1.10;;
55312;SDS011;46892;45.668;11.756;2022-07-06T07:59:46;2.95;;;1.00;;
55312;SDS011;46892;45.668;11.756;2022-07-06T08:02:11;2.40;;;1.13;;
55312;SDS011;46892;45.668;11.756;2022-07-06T08:04:37;3.20;;;1.33;;
55312;SDS011;46892;45.668;11.756;2022-07-06T08:07:03;2.30;;;1.20;;
55312;SDS011;46892;45.668;11.756;2022-07-06T08:09:29;1.60;;;1.30;;
55312;SDS011;46892;45.668;11.756;2022-07-06T08:11:54;2.40;;;1.15;;
55312;SDS011;46892;45.668;11.756;2022-07-06T08:14:20;2.92;;;1.10;;
55312;SDS011;46892;45.668;11.756;2022-07-06T08:16:46;3.55;;;1.10;;
55312;SDS011;46892;45.668;11.756;2022-07-06T08:19:11;2.13;;;1.10;;
55312;SDS011;46892;45.668;11.756;2022-07-06T08:21:40;1.83;;;1.13;;
55312;SDS011;46892;45.668;11.756;2022-07-06T08:24:06;3.35;;;1.10;;
55312;SDS011;46892;45.668;11.756;2022-07-06T08:26:32;2.28;;;0.90;;
55312;SDS011;46892;45.668;11.756;2022-07-06T08:28:58;1.05;;;0.63;;
55312;SDS011;46892;45.668;11.756;2022-07-06T08:31:24;1.27;;;0.80;;
55312;SDS011;46892;45.668;11.756;2022-07-06T08:33:52;1.35;;;1.00;;
55312;SDS011;46892;45.668;11.756;2022-07-06T08:36:18;1.00;;;0.90;;
55312;SDS011;46892;45.668;11.756;2022-07-06T08:38:45;3.83;;;1.20;;
55312;SDS011;46892;45.668;11.756;2022-07-06T08:41:10;1.95;;;1.08;;
55312;SDS011;46892;45.668;11.756;2022-07-06T08:43:38;2.45;;;1.20;;
55312;SDS011;46892;45.668;11.756;2022-07-06T08:46:04;1.20;;;1.00;;
55312;SDS011;46892;45.668;11.756;2022-07-06T08:48:32;1.00;;;0.90;;
55312;SDS011;46892;45.668;11.756;2022-07-06T08:51:01;2.60;;;0.90;;
55312;SDS011;46892;45.668;11.756;2022-07-06T08:53:29;2.95;;;1.10;;
55312;SDS011;46892;45.668;11.756;2022-07-06T08:55:54;5.55;;;1.17;;
55312;SDS011;46892;45.668;11.756;2022-07-06T08:58:20;1.30;;;1.00;;
55312;SDS011;46892;45.668;11.756;2022-07-06T09:00:49;1.10;;;0.90;;
55312;SDS011;46892;45.668;11.756;2022-07-06T09:03:14;2.38;;;0.80;;
55312;SDS011;46892;45.668;11.756;2022-07-06T09:05:42;2.45;;;1.10;;
55312;SDS011;46892;45.668;11.756;2022-07-06T09:08:11;1.05;;;0.90;;
55312;SDS011;46892;45.668;11.756;2022-07-06T09:10:37;2.88;;;1.23;;
55312;SDS011;46892;45.668;11.756;2022-07-06T09:13:04;2.92;;;0.90;;
55312;SDS011;46892;45.668;11.756;2022-07-06T09:15:35;4.22;;;1.00;;
55312;SDS011;46892;45.668;11.756;2022-07-06T09:18:03;1.52;;;1.10;;
55312;SDS011;46892;45.668;11.756;2022-07-06T09:20:29;3.20;;;1.02;;
55312;SDS011;46892;45.668;11.756;2022-07-06T09:22:59;2.33;;;0.90;;
55312;SDS011;46892;45.668;11.756;2022-07-06T09:25:26;2.38;;;0.80;;
55312;SDS011;46892;45.668;11.756;2022-07-06T09:27:53;1.45;;;1.05;;
55312;SDS011;46892;45.668;11.756;2022-07-06T09:30:21;1.25;;;0.85;;
55312;SDS011;46892;45.668;11.756;2022-07-06T09:32:49;1.20;;;0.90;;
55312;SDS011;46892;45.668;11.756;2022-07-06T09:35:23;1.88;;;0.80;;
55312;SDS011;46892;45.668;11.756;2022-07-06T09:40:40;1.67;;;0.80;;
55312;SDS011;46892;45.668;11.756;2022-07-06T09:45:53;0.93;;;0.90;;
55312;SDS011;46892;45.668;11.756;2022-07-06T09:50:59;1.95;;;1.02;;
55312;SDS011;46892;45.668;11.756;2022-07-06T09:53:30;2.13;;;0.85;;
55312;SDS011;46892;45.668;11.756;2022-07-06T09:55:56;2.63;;;1.00;;
55312;SDS011;46892;45.668;11.756;2022-07-06T09:58:26;0.70;;;0.70;;
55312;SDS011;46892;45.668;11.756;2022-07-06T10:00:52;1.10;;;0.63;;
55312;SDS011;46892;45.668;11.756;2022-07-06T10:03:18;1.65;;;0.70;;
55312;SDS011;46892;45.668;11.756;2022-07-06T10:05:44;1.63;;;0.70;;
55312;SDS011;46892;45.668;11.756;2022-07-06T10:08:12;2.15;;;0.80;;
55312;SDS011;46892;45.668;11.756;2022-07-06T10:10:40;1.92;;;0.85;;
55312;SDS011;46892;45.668;11.756;2022-07-06T10:13:07;1.83;;;0.82;;
55312;SDS011;46892;45.668;11.756;2022-07-06T10:15:34;1.40;;;0.63;;
55312;SDS011;46892;45.668;11.756;2022-07-06T10:18:03;5.73;;;1.10;;
55312;SDS011;46892;45.668;11.756;2022-07-06T10:20:32;1.17;;;0.73;;
55312;SDS011;46892;45.668;11.756;2022-07-06T10:23:01;1.90;;;1.00;;
55312;SDS011;46892;45.668;11.756;2022-07-06T10:25:28;1.50;;;0.80;;
55312;SDS011;46892;45.668;11.756;2022-07-06T10:27:54;2.00;;;0.90;;
55312;SDS011;46892;45.668;11.756;2022-07-06T10:30:20;2.28;;;0.80;;
55312;SDS011;46892;45.668;11.756;2022-07-06T10:32:47;1.48;;;1.00;;
55312;SDS011;46892;45.668;11.756;2022-07-06T10:35:15;1.17;;;0.70;;
55312;SDS011;46892;45.668;11.756;2022-07-06T10:37:43;1.05;;;0.70;;
55312;SDS011;46892;45.668;11.756;2022-07-06T10:40:12;2.13;;;0.70;;
55312;SDS011;46892;45.668;11.756;2022-07-06T10:43:01;2.95;;;0.80;;
55312;SDS011;46892;45.668;11.756;2022-07-06T10:48:35;1.65;;;0.75;;
55312;SDS011;46892;45.668;11.756;2022-07-06T10:53:13;1.00;;;0.88;;
55312;SDS011;46892;45.668;11.756;2022-07-06T10:55:50;3.25;;;1.20;;
55312;SDS011;46892;45.668;11.756;2022-07-06T11:01:02;0.90;;;0.82;;
55312;SDS011;46892;45.668;11.756;2022-07-06T11:03:29;2.25;;;1.00;;
55312;SDS011;46892;45.668;11.756;2022-07-06T11:05:59;1.58;;;0.90;;
55312;SDS011;46892;45.668;11.756;2022-07-06T11:11:41;2.53;;;1.10;;
55312;SDS011;46892;45.668;11.756;2022-07-06T11:14:10;2.58;;;1.10;;
55312;SDS011;46892;45.668;11.756;2022-07-06T11:19:09;1.52;;;0.95;;
55312;SDS011;46892;45.668;11.756;2022-07-06T11:21:40;0.60;;;0.60;;
55312;SDS011;46892;45.668;11.756;2022-07-06T11:24:13;2.65;;;0.98;;
55312;SDS011;46892;45.668;11.756;2022-07-06T11:26:41;2.80;;;0.95;;
55312;SDS011;46892;45.668;11.756;2022-07-06T11:29:08;2.22;;;0.80;;
55312;SDS011;46892;45.668;11.756;2022-07-06T11:31:36;1.50;;;0.90;;
55312;SDS011;46892;45.668;11.756;2022-07-06T11:34:04;3.22;;;1.00;;
55312;SDS011;46892;45.668;11.756;2022-07-06T11:36:31;2.97;;;0.93;;
55312;SDS011;46892;45.668;11.756;2022-07-06T11:38:57;1.63;;;1.08;;
55312;SDS011;46892;45.668;11.756;2022-07-06T11:41:23;1.98;;;1.20;;
55312;SDS011;46892;45.668;11.756;2022-07-06T11:43:49;1.67;;;0.90;;
55312;SDS011;46892;45.668;11.756;2022-07-06T11:49:01;1.83;;;1.00;;
55312;SDS011;46892;45.668;11.756;2022-07-06T11:51:35;1.92;;;1.17;;
55312;SDS011;46892;45.668;11.756;2022-07-06T11:54:09;1.65;;;1.00;;
55312;SDS011;46892;45.668;11.756;2022-07-06T11:56:36;2.35;;;0.90;;
55312;SDS011;46892;45.668;11.756;2022-07-06T11:59:10;0.95;;;0.80;;
55312;SDS011;46892;45.668;11.756;2022-07-06T12:01:35;2.13;;;0.70;;
55312;SDS011;46892;45.668;11.756;2022-07-06T12:04:06;1.85;;;1.00;;
55312;SDS011;46892;45.668;11.756;2022-07-06T12:06:32;1.70;;;1.00;;
55312;SDS011;46892;45.668;11.756;2022-07-06T12:08:59;2.45;;;1.13;;
55312;SDS011;46892;45.668;11.756;2022-07-06T12:11:33;2.05;;;0.98;;
55312;SDS011;46892;45.668;11.756;2022-07-06T12:14:01;1.90;;;1.10;;
55312;SDS011;46892;45.668;11.756;2022-07-06T12:16:50;1.55;;;0.82;;
55312;SDS011;46892;45.668;11.756;2022-07-06T12:19:16;0.83;;;0.80;;
55312;SDS011;46892;45.668;11.756;2022-07-06T12:21:46;0.80;;;0.80;;
55312;SDS011;46892;45.668;11.756;2022-07-06T12:24:26;1.65;;;0.98;;
55312;SDS011;46892;45.668;11.756;2022-07-06T12:26:54;1.60;;;0.90;;
55312;SDS011;46892;45.668;11.756;2022-07-06T12:29:20;1.73;;;1.20;;
55312;SDS011;46892;45.668;11.756;2022-07-06T12:34:13;6.30;;;1.13;;
55312;SDS011;46892;45.668;11.756;2022-07-06T12:36:42;18.88;;;2.72;;
55312;SDS011;46892;45.668;11.756;2022-07-06T12:39:12;1.42;;;0.77;;
55312;SDS011;46892;45.668;11.756;2022-07-06T12:42:01;1.75;;;0.90;;
55312;SDS011;46892;45.668;11.756;2022-07-06T12:44:27;4.60;;;0.90;;
55312;SDS011;46892;45.668;11.756;2022-07-06T12:47:03;1.67;;;0.80;;
55312;SDS011;46892;45.668;11.756;2022-07-06T12:49:30;1.15;;;0.63;;
55312;SDS011;46892;45.668;11.756;2022-07-06T12:54:34;2.42;;;1.00;;
55312;SDS011;46892;45.668;11.756;2022-07-06T12:59:33;1.63;;;1.05;;
55312;SDS011;46892;45.668;11.756;2022-07-06T13:02:04;1.58;;;0.80;;
55312;SDS011;46892;45.668;11.756;2022-07-06T13:04:31;2.47;;;1.00;;
55312;SDS011;46892;45.668;11.756;2022-07-06T13:06:57;2.85;;;0.88;;
55312;SDS011;46892;45.668;11.756;2022-07-06T13:09:24;1.67;;;0.80;;
55312;SDS011;46892;45.668;11.756;2022-07-06T13:11:49;1.48;;;0.80;;
55312;SDS011;46892;45.668;11.756;2022-07-06T13:14:15;1.13;;;0.57;;
55312;SDS011;46892;45.668;11.756;2022-07-06T13:16:43;2.13;;;0.80;;
55312;SDS011;46892;45.668;11.756;2022-07-06T13:19:11;1.35;;;0.80;;
55312;SDS011;46892;45.668;11.756;2022-07-06T13:21:37;0.73;;;0.60;;
55312;SDS011;46892;45.668;11.756;2022-07-06T13:24:03;0.90;;;0.70;;
55312;SDS011;46892;45.668;11.756;2022-07-06T13:26:29;1.45;;;0.85;;
55312;SDS011;46892;45.668;11.756;2022-07-06T13:28:58;1.08;;;0.65;;
55312;SDS011;46892;45.668;11.756;2022-07-06T13:31:30;4.13;;;0.70;;
55312;SDS011;46892;45.668;11.756;2022-07-06T13:33:56;1.75;;;1.00;;
55312;SDS011;46892;45.668;11.756;2022-07-06T13:36:24;1.15;;;0.70;;
55312;SDS011;46892;45.668;11.756;2022-07-06T13:38:50;0.70;;;0.45;;
55312;SDS011;46892;45.668;11.756;2022-07-06T13:41:16;1.23;;;0.80;;
55312;SDS011;46892;45.668;11.756;2022-07-06T13:43:41;2.80;;;0.73;;
55312;SDS011;46892;45.668;11.756;2022-07-06T13:46:07;1.77;;;0.60;;
55312;SDS011;46892;45.668;11.756;2022-07-06T13:48:35;1.90;;;0.70;;
55312;SDS011;46892;45.668;11.756;2022-07-06T13:51:01;0.98;;;0.68;;
55312;SDS011;46892;45.668;11.756;2022-07-06T13:53:27;2.50;;;0.88;;
55312;SDS011;46892;45.668;11.756;2022-07-06T13:55:53;1.42;;;0.70;;
55312;SDS011;46892;45.668;11.756;2022-07-06T13:58:19;0.98;;;0.55;;
55312;SDS011;46892;45.668;11.756;2022-07-06T14:00:45;0.98;;;0.60;;
55312;SDS011;46892;45.668;11.756;2022-07-06T14:03:11;1.33;;;0.70;;
55312;SDS011;46892;45.668;11.756;2022-07-06T14:05:37;1.38;;;0.70;;
55312;SDS011;46892;45.668;11.756;2022-07-06T14:08:03;1.80;;;0.68;;
55312;SDS011;46892;45.668;11.756;2022-07-06T14:10:28;2.42;;;0.80;;
55312;SDS011;46892;45.668;11.756;2022-07-06T14:12:54;1.13;;;0.63;;
55312;SDS011;46892;45.668;11.756;2022-07-06T14:15:20;3.63;;;0.70;;
55312;SDS011;46892;45.668;11.756;2022-07-06T14:17:46;1.85;;;0.68;;
55312;SDS011;46892;45.668;11.756;2022-07-06T14:20:15;1.55;;;0.60;;
55312;SDS011;46892;45.668;11.756;2022-07-06T14:22:41;2.13;;;0.90;;
55312;SDS011;46892;45.668;11.756;2022-07-06T14:25:07;1.60;;;0.63;;
55312;SDS011;46892;45.668;11.756;2022-07-06T14:27:34;0.60;;;0.47;;
55312;SDS011;46892;45.668;11.756;2022-07-06T14:30:00;1.45;;;0.70;;
55312;SDS011;46892;45.668;11.756;2022-07-06T14:32:26;1.10;;;0.73;;
55312;SDS011;46892;45.668;11.756;2022-07-06T14:34:51;2.10;;;0.80;;
55312;SDS011;46892;45.668;11.756;2022-07-06T14:37:17;1.90;;;0.85;;
55312;SDS011;46892;45.668;11.756;2022-07-06T14:39:43;1.55;;;0.57;;
55312;SDS011;46892;45.668;11.756;2022-07-06T14:42:11;3.40;;;0.65;;
55312;SDS011;46892;45.668;11.756;2022-07-06T14:44:37;2.47;;;0.60;;
55312;SDS011;46892;45.668;11.756;2022-07-06T14:47:03;0.93;;;0.60;;
55312;SDS011;46892;45.668;11.756;2022-07-06T14:49:29;1.05;;;0.73;;
55312;SDS011;46892;45.668;11.756;2022-07-06T14:51:55;1.67;;;0.63;;
55312;SDS011;46892;45.668;11.756;2022-07-06T14:54:22;2.10;;;0.60;;
55312;SDS011;46892;45.668;11.756;2022-07-06T14:56:48;1.80;;;0.50;;
55312;SDS011;46892;45.668;11.756;2022-07-06T14:59:14;2.95;;;0.98;;
55312;SDS011;46892;45.668;11.756;2022-07-06T15:01:40;1.35;;;0.70;;
55312;SDS011;46892;45.668;11.756;2022-07-06T15:04:05;1.05;;;0.70;;